Wetterdaten: Woche 11.12.17 - 17.12.17 (KW50)
Datum Zeit Temp. Aussen Temp. o. S. +5cm Feuchte Auss BlattFeu 1 Luftdruck Regen Sonnenschein Regendauer Solar Windben Empfang
11.12.2017 00:00 3,2 C 3,0 C 1,7 C 92 % 0 lf 980,9 hPa 0,0 l/m 0,00 h 0,00 h 0 W/m 24,1 km/h (4 Bft) 96,73 %
11.12.2017 01:00 2,8 C 2,5 C 1,1 C 93 % 0 lf 982,6 hPa 0,0 l/m 0,00 h 0,00 h 0 W/m 17,9 km/h (3 Bft) 96,30 %
11.12.2017 02:00 2,3 C 1,4 C -0,4 C 93 % 0 lf 983,0 hPa 0,0 l/m 0,00 h 0,00 h 0 W/m 1,2 km/h (1 Bft) 96,44 %
11.12.2017 03:00 1,8 C 1,6 C 0,3 C 93 % 1 lf 983,8 hPa 0,0 l/m 0,00 h 0,00 h 0 W/m 4,0 km/h (1 Bft) 94,08 %
11.12.2017 04:00 1,9 C 1,7 C 0,6 C 94 % 0 lf 984,3 hPa 0,0 l/m 0,00 h 0,00 h 0 W/m 4,1 km/h (1 Bft) 96,59 %
11.12.2017 05:00 1,2 C 0,5 C -0,5 C 94 % 0 lf 983,4 hPa 0,0 l/m 0,00 h 0,00 h 0 W/m 14,3 km/h (3 Bft) 96,29 %
11.12.2017 06:00 0,3 C 0,1 C -0,8 C 94 % 0 lf 982,6 hPa 0,0 l/m 0,00 h 0,00 h 0 W/m 16,4 km/h (3 Bft) 96,37 %
11.12.2017 07:00 0,3 C 0,5 C -0,6 C 93 % 0 lf 981,9 hPa 0,0 l/m 0,00 h 0,00 h 0 W/m 19,3 km/h (3 Bft) 94,88 %
11.12.2017 08:00 0,4 C 0,6 C -0,6 C 93 % 0 lf 981,9 hPa 0,0 l/m 0,00 h 0,00 h 0 W/m 21,2 km/h (4 Bft) 96,29 %
11.12.2017 09:00 0,5 C 0,1 C -1,1 C 93 % 8 lf 981,2 hPa 0,0 l/m 0,00 h 0,67 h 6 W/m 22,9 km/h (4 Bft) 96,87 %
11.12.2017 10:00 0,4 C 0,0 C -1,1 C 95 % 15 lf 980,7 hPa 1,6 l/m 0,00 h 1,00 h 9 W/m 25,2 km/h (4 Bft) 97,58 %
11.12.2017 11:00 0,4 C 0,0 C -1,1 C 96 % 15 lf 979,6 hPa 1,2 l/m 0,00 h 1,00 h 9 W/m 24,6 km/h (4 Bft) 94,80 %
11.12.2017 12:00 0,5 C 0,5 C -1,1 C 96 % 15 lf 977,9 hPa 1,6 l/m 0,00 h 0,57 h 29 W/m 30,1 km/h (5 Bft) 97,57 %
11.12.2017 13:00 0,5 C 0,6 C -1,0 C 97 % 15 lf 976,6 hPa 0,6 l/m 0,00 h 0,17 h 23 W/m 30,2 km/h (5 Bft) 95,89 %
11.12.2017 14:00 0,6 C 0,6 C -0,6 C 97 % 15 lf 976,0 hPa 1,0 l/m 0,00 h 0,20 h 18 W/m 22,9 km/h (4 Bft) 96,66 %
11.12.2017 15:00 0,9 C 1,1 C 0,0 C 97 % 15 lf 975,2 hPa 0,4 l/m 0,00 h 0,00 h 23 W/m 16,0 km/h (3 Bft) 97,01 %
11.12.2017 16:00 1,1 C 1,1 C -0,2 C 98 % 15 lf 975,2 hPa 0,4 l/m 0,00 h 0,00 h 6 W/m 6,8 km/h (2 Bft) 94,37 %
11.12.2017 17:00 1,1 C 1,1 C -0,1 C 98 % 15 lf 975,6 hPa 0,2 l/m 0,00 h 0,10 h 0 W/m 2,2 km/h (1 Bft) 96,80 %
11.12.2017 18:00 1,2 C 1,1 C 0,0 C 98 % 15 lf 975,8 hPa 0,2 l/m 0,00 h 0,00 h 0 W/m 0,9 km/h (0 Bft) 97,47 %
11.12.2017 19:00 2,0 C 3,1 C 1,0 C 98 % 15 lf 976,5 hPa 0,4 l/m 0,00 h 0,00 h 0 W/m 9,9 km/h (2 Bft) 92,96 %
11.12.2017 20:00 5,1 C 5,7 C 3,5 C 99 % 15 lf 977,4 hPa 0,6 l/m 0,00 h 0,00 h 0 W/m 16,7 km/h (3 Bft) 96,73 %
11.12.2017 21:00 5,0 C 4,1 C 2,4 C 98 % 15 lf 979,1 hPa 0,6 l/m 0,00 h 0,77 h 0 W/m 8,1 km/h (2 Bft) 97,97 %
11.12.2017 22:00 2,6 C 1,6 C 0,6 C 97 % 15 lf 980,7 hPa 0,2 l/m 0,00 h 0,90 h 0 W/m 11,7 km/h (2 Bft) 94,81 %
11.12.2017 23:00 1,0 C 0,6 C -0,3 C 97 % 15 lf 982,2 hPa 0,4 l/m 0,00 h 0,63 h 0 W/m 14,0 km/h (3 Bft) 96,16 %
12.12.2017 00:00 0,5 C 0,1 C -0,6 C 97 % 15 lf 984,6 hPa 0,0 l/m 0,00 h 0,00 h 0 W/m 19,7 km/h (3 Bft) 94,34 %
12.12.2017 01:00 0,5 C 0,4 C -0,6 C 97 % 15 lf 986,9 hPa 0,0 l/m 0,00 h 0,37 h 0 W/m 20,1 km/h (4 Bft) 95,85 %
12.12.2017 02:00 0,6 C 0,6 C -0,5 C 97 % 15 lf 989,2 hPa 0,2 l/m 0,00 h 0,17 h 0 W/m 24,1 km/h (4 Bft) 97,09 %
12.12.2017 03:00 0,8 C 0,6 C 0,0 C 97 % 15 lf 991,8 hPa 0,0 l/m 0,00 h 0,13 h 0 W/m 24,5 km/h (4 Bft) 95,60 %
12.12.2017 04:00 1,1 C 0,7 C -0,0 C 98 % 15 lf 994,2 hPa 0,2 l/m 0,00 h 0,47 h 0 W/m 22,6 km/h (4 Bft) 94,43 %
12.12.2017 05:00 0,9 C 0,6 C -0,6 C 97 % 15 lf 996,4 hPa 0,0 l/m 0,00 h 0,17 h 0 W/m 25,6 km/h (4 Bft) 98,23 %
12.12.2017 06:00 1,0 C 0,8 C -0,2 C 97 % 15 lf 998,2 hPa 0,0 l/m 0,00 h 0,30 h 0 W/m 26,8 km/h (4 Bft) 95,86 %
12.12.2017 07:00 1,3 C 1,1 C 0,0 C 97 % 14 lf 999,9 hPa 0,0 l/m 0,00 h 0,37 h 0 W/m 30,6 km/h (5 Bft) 96,09 %
12.12.2017 08:00 1,5 C 1,4 C 0,1 C 97 % 5 lf 1001,6 hPa 0,2 l/m 0,00 h 0,47 h 9 W/m 30,6 km/h (5 Bft) 95,10 %
12.12.2017 09:00 1,6 C 1,9 C 0,6 C 96 % 9 lf 1003,2 hPa 0,0 l/m 0,00 h 0,67 h 35 W/m 28,4 km/h (4 Bft) 97,23 %
12.12.2017 10:00 1,5 C 1,5 C 0,4 C 96 % 15 lf 1004,7 hPa 0,6 l/m 0,00 h 0,63 h 35 W/m 28,1 km/h (4 Bft) 96,44 %
12.12.2017 11:00 1,8 C 2,0 C 1,2 C 97 % 15 lf 1005,9 hPa 0,0 l/m 0,03 h 0,00 h 71 W/m 25,8 km/h (4 Bft) 94,91 %
12.12.2017 12:00 2,3 C 2,9 C 1,8 C 96 % 12 lf 1006,7 hPa 0,0 l/m 0,23 h 0,00 h 103 W/m 22,7 km/h (4 Bft) 95,89 %
12.12.2017 13:00 2,5 C 3,0 C 1,5 C 95 % 1 lf 1007,3 hPa 0,0 l/m 0,00 h 0,00 h 53 W/m 26,9 km/h (4 Bft) 97,01 %
12.12.2017 14:00 2,5 C 2,9 C 1,6 C 95 % 0 lf 1008,3 hPa 0,0 l/m 0,00 h 0,00 h 45 W/m 19,1 km/h (3 Bft) 97,44 %
12.12.2017 15:00 2,5 C 2,7 C 1,2 C 94 % 0 lf 1009,1 hPa 0,0 l/m 0,00 h 0,00 h 26 W/m 23,9 km/h (4 Bft) 95,02 %
12.12.2017 16:00 2,3 C 2,2 C 1,0 C 93 % 0 lf 1010,0 hPa 0,0 l/m 0,00 h 0,00 h 7 W/m 22,1 km/h (4 Bft) 95,59 %
12.12.2017 17:00 2,3 C 2,2 C 1,1 C 93 % 0 lf 1011,1 hPa 0,0 l/m 0,00 h 0,00 h 0 W/m 21,6 km/h (4 Bft) 97,65 %
12.12.2017 18:00 2,4 C 2,3 C 1,1 C 93 % 0 lf 1011,6 hPa 0,0 l/m 0,00 h 0,00 h 0 W/m 15,6 km/h (3 Bft) 97,49 %
12.12.2017 19:00 2,5 C 2,8 C 1,5 C 93 % 0 lf 1012,4 hPa 0,0 l/m 0,00 h 0,00 h 0 W/m 15,0 km/h (3 Bft) 93,52 %
12.12.2017 20:00 2,4 C 2,3 C 1,1 C 93 % 0 lf 1012,7 hPa 0,0 l/m 0,00 h 0,00 h 0 W/m 13,9 km/h (3 Bft) 98,65 %
12.12.2017 21:00 2,4 C 2,1 C 0,9 C 92 % 0 lf 1012,9 hPa 0,0 l/m 0,00 h 0,00 h 0 W/m 12,3 km/h (3 Bft) 94,88 %
12.12.2017 22:00 2,0 C 1,6 C -0,0 C 92 % 0 lf 1012,9 hPa 0,0 l/m 0,00 h 0,00 h 0 W/m 12,6 km/h (3 Bft) 97,93 %
12.12.2017 23:00 1,7 C 1,2 C -0,2 C 93 % 0 lf 1013,0 hPa 0,0 l/m 0,00 h 0,00 h 0 W/m 16,2 km/h (3 Bft) 96,30 %
13.12.2017 00:00 1,3 C 1,1 C -0,6 C 93 % 0 lf 1012,9 hPa 0,0 l/m 0,00 h 0,00 h 0 W/m 19,1 km/h (3 Bft) 94,14 %
13.12.2017 01:00 1,2 C 1,1 C -0,6 C 93 % 0 lf 1012,3 hPa 0,0 l/m 0,00 h 0,00 h 0 W/m 19,1 km/h (3 Bft) 97,43 %
13.12.2017 02:00 1,1 C 1,0 C -0,7 C 92 % 0 lf 1011,7 hPa 0,0 l/m 0,00 h 0,00 h 0 W/m 17,5 km/h (3 Bft) 97,58 %
13.12.2017 03:00 0,8 C 0,6 C -0,8 C 92 % 0 lf 1010,9 hPa 0,0 l/m 0,00 h 0,00 h 0 W/m 15,3 km/h (3 Bft) 95,01 %
13.12.2017 04:00 0,6 C 0,6 C -1,0 C 91 % 0 lf 1009,9 hPa 0,0 l/m 0,00 h 0,00 h 0 W/m 18,4 km/h (3 Bft) 96,64 %
13.12.2017 05:00 0,7 C 0,8 C -0,8 C 91 % 0 lf 1008,8 hPa 0,0 l/m 0,00 h 0,00 h 0 W/m 17,6 km/h (3 Bft) 96,58 %
13.12.2017 06:00 1,4 C 1,6 C -0,2 C 92 % 0 lf 1007,8 hPa 0,0 l/m 0,00 h 0,00 h 0 W/m 18,3 km/h (3 Bft) 95,97 %
13.12.2017 07:00 3,0 C 3,4 C 1,7 C 91 % 0 lf 1006,6 hPa 0,0 l/m 0,00 h 0,00 h 0 W/m 28,8 km/h (4 Bft) 96,89 %
13.12.2017 08:00 3,8 C 3,9 C 2,3 C 87 % 0 lf 1005,5 hPa 0,0 l/m 0,00 h 0,03 h 8 W/m 26,6 km/h (4 Bft) 96,19 %
13.12.2017 09:00 4,2 C 3,5 C 2,3 C 88 % 4 lf 1004,3 hPa 0,4 l/m 0,00 h 0,75 h 16 W/m 30,3 km/h (5 Bft) 98,14 %
13.12.2017 10:00 4,4 C 3,3 C 2,3 C 91 % 11 lf 1003,0 hPa 1,0 l/m 0,00 h 1,00 h 13 W/m 34,3 km/h (5 Bft) 99,20 %
13.12.2017 11:00 4,4 C 3,9 C 2,8 C 94 % 15 lf 1001,2 hPa 1,6 l/m 0,00 h 0,93 h 20 W/m 30,7 km/h (5 Bft) 97,00 %
13.12.2017 12:00 4,4 C 3,9 C 2,8 C 94 % 15 lf 999,5 hPa 1,2 l/m 0,00 h 1,00 h 21 W/m 36,5 km/h (5 Bft) 94,74 %
13.12.2017 13:00 4,9 C 4,3 C 3,2 C 93 % 15 lf 998,2 hPa 0,2 l/m 0,00 h 0,73 h 22 W/m 38,8 km/h (5 Bft) 97,23 %
13.12.2017 14:00 4,9 C 3,9 C 2,8 C 92 % 15 lf 997,5 hPa 0,6 l/m 0,00 h 1,00 h 27 W/m 44,4 km/h (6 Bft) 96,94 %
13.12.2017 15:00 4,6 C 3,9 C 2,8 C 93 % 15 lf 997,3 hPa 0,0 l/m 0,00 h 0,90 h 24 W/m 30,6 km/h (5 Bft) 94,00 %
13.12.2017 16:00 4,7 C 3,9 C 2,8 C 93 % 13 lf 996,6 hPa 0,0 l/m 0,00 h 0,13 h 6 W/m 22,7 km/h (4 Bft) 95,94 %
13.12.2017 17:00 4,7 C 3,9 C 2,8 C 93 % 4 lf 995,4 hPa 0,0 l/m 0,00 h 0,63 h 0 W/m 21,8 km/h (4 Bft) 97,94 %
13.12.2017 18:00 4,7 C 4,0 C 2,9 C 94 % 8 lf 993,4 hPa 0,2 l/m 0,00 h 0,80 h 0 W/m 27,4 km/h (4 Bft) 95,51 %
13.12.2017 19:00 4,9 C 4,4 C 3,3 C 95 % 12 lf 991,2 hPa 1,4 l/m 0,00 h 1,00 h 0 W/m 27,3 km/h (4 Bft) 96,51 %
13.12.2017 20:00 5,4 C 5,1 C 3,9 C 96 % 15 lf 989,1 hPa 3,0 l/m 0,00 h 0,97 h 0 W/m 26,4 km/h (4 Bft) 95,51 %
13.12.2017 21:00 6,0 C 5,6 C 4,4 C 97 % 15 lf 986,9 hPa 2,2 l/m 0,00 h 1,00 h 0 W/m 30,6 km/h (5 Bft) 96,72 %
13.12.2017 22:00 5,7 C 4,9 C 3,8 C 97 % 15 lf 986,9 hPa 2,8 l/m 0,00 h 0,43 h 0 W/m 34,5 km/h (5 Bft) 98,01 %
13.12.2017 23:00 5,1 C 4,4 C 3,1 C 95 % 15 lf 988,2 hPa 0,0 l/m 0,00 h 0,00 h 0 W/m 35,9 km/h (5 Bft) 93,37 %
14.12.2017 00:00 5,0 C 4,4 C 3,0 C 95 % 13 lf 988,7 hPa 0,0 l/m 0,00 h 0,00 h 0 W/m 31,8 km/h (5 Bft) 96,97 %
14.12.2017 01:00 4,7 C 4,0 C 2,4 C 92 % 1 lf 988,6 hPa 0,0 l/m 0,00 h 0,00 h 0 W/m 33,5 km/h (5 Bft) 98,22 %
14.12.2017 02:00 4,5 C 4,1 C 2,6 C 91 % 0 lf 988,1 hPa 0,0 l/m 0,00 h 0,00 h 0 W/m 22,1 km/h (4 Bft) 95,60 %
14.12.2017 03:00 4,0 C 3,3 C 1,9 C 90 % 7 lf 988,0 hPa 1,8 l/m 0,00 h 0,57 h 0 W/m 26,7 km/h (4 Bft) 95,51 %
14.12.2017 04:00 2,0 C 1,5 C 0,6 C 93 % 15 lf 988,2 hPa 0,6 l/m 0,00 h 0,77 h 0 W/m 27,9 km/h (4 Bft) 97,80 %
14.12.2017 05:00 2,8 C 2,5 C 1,5 C 96 % 15 lf 988,6 hPa 0,0 l/m 0,00 h 0,73 h 0 W/m 46,4 km/h (6 Bft) 94,69 %
14.12.2017 06:00 2,5 C 2,1 C 1,1 C 95 % 15 lf 990,0 hPa 0,0 l/m 0,00 h 1,00 h 0 W/m 47,5 km/h (6 Bft) 98,82 %
14.12.2017 07:00 2,5 C 2,2 C 1,0 C 95 % 15 lf 991,5 hPa 0,0 l/m 0,00 h 1,00 h 0 W/m 46,2 km/h (6 Bft) 94,45 %
14.12.2017 08:00 3,0 C 2,5 C 0,8 C 91 % 3 lf 992,2 hPa 0,0 l/m 0,00 h 0,43 h 10 W/m 36,3 km/h (5 Bft) 95,49 %
14.12.2017 09:00 3,2 C 3,5 C 1,3 C 90 % 0 lf 992,3 hPa 0,0 l/m 0,10 h 0,00 h 40 W/m 30,6 km/h (5 Bft) 97,94 %
14.12.2017 10:00 4,5 C 5,1 C 2,9 C 88 % 0 lf 992,7 hPa 0,2 l/m 0,30 h 0,00 h 89 W/m 39,6 km/h (6 Bft) 96,44 %
14.12.2017 11:00 4,4 C 4,8 C 3,0 C 88 % 0 lf 992,9 hPa 0,0 l/m 0,07 h 0,03 h 59 W/m 47,8 km/h (6 Bft) 94,03 %
14.12.2017 12:00 4,1 C 4,5 C 2,8 C 88 % 0 lf 992,5 hPa 0,0 l/m 0,03 h 0,00 h 62 W/m 45,7 km/h (6 Bft) 96,64 %
14.12.2017 13:00 4,1 C 5,5 C 3,3 C 90 % 0 lf 992,4 hPa 0,0 l/m 0,37 h 0,00 h 110 W/m 39,0 km/h (6 Bft) 95,75 %
14.12.2017 14:00 4,2 C 4,5 C 3,1 C 88 % 0 lf 992,1 hPa 0,0 l/m 0,00 h 0,00 h 61 W/m 38,9 km/h (6 Bft) 96,51 %
14.12.2017 15:00 3,9 C 3,9 C 2,7 C 89 % 0 lf 991,8 hPa 0,0 l/m 0,07 h 0,00 h 30 W/m 31,2 km/h (5 Bft) 96,08 %
14.12.2017 16:00 3,8 C 3,6 C 2,1 C 89 % 0 lf 991,6 hPa 0,0 l/m 0,10 h 0,00 h 10 W/m 24,1 km/h (4 Bft) 96,04 %
14.12.2017 17:00 3,5 C 3,1 C 1,6 C 89 % 0 lf 991,4 hPa 0,0 l/m 0,00 h 0,00 h 0 W/m 18,7 km/h (3 Bft) 96,78 %
14.12.2017 18:00 3,3 C 3,0 C 1,7 C 91 % 6 lf 990,7 hPa 0,0 l/m 0,00 h 0,40 h 0 W/m 16,9 km/h (3 Bft) 95,82 %
14.12.2017 19:00 3,2 C 2,7 C 1,6 C 93 % 15 lf 990,2 hPa 0,2 l/m 0,00 h 0,07 h 0 W/m 9,5 km/h (2 Bft) 95,33 %
14.12.2017 20:00 3,4 C 3,2 C 2,0 C 94 % 14 lf 989,7 hPa 0,6 l/m 0,00 h 0,67 h 0 W/m 10,1 km/h (2 Bft) 98,11 %
14.12.2017 21:00 3,1 C 2,4 C 1,5 C 95 % 15 lf 989,3 hPa 0,4 l/m 0,00 h 0,63 h 0 W/m 12,8 km/h (3 Bft) 96,87 %
14.12.2017 22:00 2,7 C 2,1 C 1,1 C 95 % 15 lf 989,2 hPa 0,2 l/m 0,00 h 0,37 h 0 W/m 13,9 km/h (3 Bft) 95,23 %
14.12.2017 23:00 2,2 C 1,4 C 0,3 C 95 % 15 lf 989,2 hPa 0,0 l/m 0,00 h 0,00 h 0 W/m 11,0 km/h (2 Bft) 96,51 %
15.12.2017 00:00 2,0 C 1,8 C 1,0 C 96 % 15 lf 989,5 hPa 0,2 l/m 0,00 h 0,00 h 0 W/m 13,5 km/h (3 Bft) 96,66 %
15.12.2017 01:00 2,3 C 2,2 C 1,1 C 96 % 14 lf 989,7 hPa 0,0 l/m 0,00 h 0,00 h 0 W/m 19,4 km/h (3 Bft) 97,22 %
15.12.2017 02:00 2,3 C 2,2 C 1,1 C 96 % 5 lf 990,1 hPa 0,0 l/m 0,00 h 0,00 h 0 W/m 14,5 km/h (3 Bft) 94,80 %
15.12.2017 03:00 2,3 C 2,2 C 1,1 C 96 % 0 lf 991,1 hPa 0,0 l/m 0,00 h 0,00 h 0 W/m 16,4 km/h (3 Bft) 97,87 %
15.12.2017 04:00 2,3 C 2,2 C 1,1 C 95 % 0 lf 991,5 hPa 0,0 l/m 0,00 h 0,00 h 0 W/m 13,1 km/h (3 Bft) 95,43 %
15.12.2017 05:00 2,4 C 2,3 C 1,1 C 95 % 0 lf 991,6 hPa 0,0 l/m 0,00 h 0,03 h 0 W/m 10,0 km/h (2 Bft) 96,40 %
15.12.2017 06:00 2,8 C 2,8 C 1,7 C 96 % 0 lf 991,9 hPa 0,0 l/m 0,00 h 0,00 h 0 W/m 12,5 km/h (3 Bft) 97,02 %
15.12.2017 07:00 3,0 C 3,2 C 1,7 C 95 % 0 lf 992,3 hPa 0,0 l/m 0,00 h 0,00 h 0 W/m 8,1 km/h (2 Bft) 93,81 %
15.12.2017 08:00 3,2 C 3,1 C 1,7 C 95 % 5 lf 992,5 hPa 0,2 l/m 0,00 h 0,33 h 7 W/m 11,0 km/h (2 Bft) 97,93 %
15.12.2017 09:00 3,4 C 3,2 C 2,3 C 95 % 6 lf 993,0 hPa 0,0 l/m 0,00 h 0,00 h 33 W/m 9,7 km/h (2 Bft) 98,15 %
15.12.2017 10:00 3,8 C 4,0 C 2,8 C 96 % 0 lf 993,5 hPa 0,0 l/m 0,00 h 0,00 h 69 W/m 13,1 km/h (3 Bft) 94,30 %
15.12.2017 11:00 4,0 C 4,6 C 2,9 C 95 % 0 lf 994,2 hPa 0,0 l/m 0,00 h 0,00 h 57 W/m 11,1 km/h (2 Bft) 96,22 %
15.12.2017 12:00 4,4 C 5,0 C 3,4 C 94 % 0 lf 994,4 hPa 0,0 l/m 0,00 h 0,00 h 62 W/m 9,6 km/h (2 Bft) 97,75 %
15.12.2017 13:00 4,5 C 5,0 C 3,3 C 92 % 0 lf 994,8 hPa 0,0 l/m 0,00 h 0,00 h 45 W/m 13,7 km/h (3 Bft) 95,16 %
15.12.2017 14:00 4,5 C 4,7 C 3,2 C 90 % 0 lf 995,2 hPa 0,0 l/m 0,00 h 0,00 h 39 W/m 16,7 km/h (3 Bft) 98,07 %
15.12.2017 15:00 4,2 C 4,3 C 2,7 C 89 % 0 lf 995,7 hPa 0,0 l/m 0,00 h 0,00 h 17 W/m 10,8 km/h (2 Bft) 94,87 %
15.12.2017 16:00 4,0 C 3,4 C 1,5 C 88 % 0 lf 996,2 hPa 0,0 l/m 0,00 h 0,00 h 7 W/m 6,3 km/h (2 Bft) 97,15 %
15.12.2017 17:00 3,3 C 2,5 C 0,7 C 88 % 0 lf 997,0 hPa 0,0 l/m 0,00 h 0,00 h 0 W/m 2,9 km/h (1 Bft) 97,36 %
15.12.2017 18:00 3,1 C 3,1 C 1,9 C 90 % 0 lf 997,7 hPa 0,0 l/m 0,00 h 0,00 h 0 W/m 1,8 km/h (1 Bft) 95,71 %
15.12.2017 19:00 3,3 C 3,3 C 2,2 C 92 % 0 lf 998,5 hPa 0,0 l/m 0,00 h 0,00 h 0 W/m 3,4 km/h (1 Bft) 94,78 %
15.12.2017 20:00 3,3 C 3,3 C 2,2 C 92 % 0 lf 999,3 hPa 0,0 l/m 0,00 h 0,00 h 0 W/m 4,4 km/h (1 Bft) 97,64 %
15.12.2017 21:00 3,3 C 2,9 C 1,6 C 92 % 0 lf 1000,0 hPa 0,0 l/m 0,00 h 0,00 h 0 W/m 3,2 km/h (1 Bft) 96,23 %
15.12.2017 22:00 2,6 C 1,0 C -0,9 C 91 % 1 lf 1000,6 hPa 0,0 l/m 0,00 h 0,00 h 0 W/m 1,0 km/h (0 Bft) 96,44 %
15.12.2017 23:00 1,5 C 0,6 C -0,9 C 90 % 2 lf 1001,4 hPa 0,0 l/m 0,00 h 0,00 h 0 W/m 0,5 km/h (0 Bft) 94,87 %
16.12.2017 00:00 1,2 C 0,9 C 0,1 C 92 % 2 lf 1002,0 hPa 0,0 l/m 0,00 h 0,00 h 0 W/m 0,1 km/h (0 Bft) 96,88 %
16.12.2017 01:00 1,5 C 1,7 C 0,6 C 94 % 0 lf 1002,6 hPa 0,0 l/m 0,00 h 0,00 h 0 W/m 0,0 km/h (0 Bft) 97,01 %
16.12.2017 02:00 1,7 C 1,8 C 0,8 C 94 % 0 lf 1003,2 hPa 0,0 l/m 0,00 h 0,00 h 0 W/m 2,0 km/h (1 Bft) 96,65 %
16.12.2017 03:00 2,0 C 1,7 C 0,2 C 95 % 1 lf 1004,0 hPa 0,0 l/m 0,00 h 0,00 h 0 W/m 4,6 km/h (1 Bft) 96,08 %
16.12.2017 04:00 1,5 C 0,5 C -0,9 C 94 % 3 lf 1004,7 hPa 0,0 l/m 0,00 h 0,00 h 0 W/m 4,6 km/h (1 Bft) 95,33 %
16.12.2017 05:00 1,8 C 2,0 C 0,9 C 95 % 10 lf 1005,3 hPa 0,0 l/m 0,00 h 0,03 h 0 W/m 8,4 km/h (2 Bft) 98,61 %
16.12.2017 06:00 2,3 C 2,0 C 0,9 C 96 % 9 lf 1005,8 hPa 0,0 l/m 0,00 h 0,00 h 0 W/m 10,0 km/h (2 Bft) 96,90 %
16.12.2017 07:00 2,2 C 1,5 C 0,2 C 96 % 8 lf 1006,6 hPa 0,0 l/m 0,00 h 0,00 h 0 W/m 10,0 km/h (2 Bft) 93,83 %
16.12.2017 08:00 1,5 C 0,3 C -1,0 C 96 % 11 lf 1007,4 hPa 0,0 l/m 0,00 h 0,00 h 9 W/m 8,5 km/h (2 Bft) 97,89 %
16.12.2017 09:00 1,3 C 1,4 C -0,2 C 96 % 12 lf 1008,5 hPa 0,0 l/m 0,33 h 0,00 h 54 W/m 13,2 km/h (3 Bft) 96,50 %
16.12.2017 10:00 2,4 C 4,0 C 1,6 C 97 % 1 lf 1009,4 hPa 0,0 l/m 0,33 h 0,00 h 89 W/m 13,4 km/h (3 Bft) 96,10 %
16.12.2017 11:00 3,3 C 8,7 C 2,3 C 97 % 0 lf 1010,0 hPa 0,0 l/m 0,70 h 0,00 h 162 W/m 15,4 km/h (3 Bft) 96,28 %
16.12.2017 12:00 4,6 C 9,8 C 3,7 C 93 % 0 lf 1010,5 hPa 0,0 l/m 0,53 h 0,00 h 172 W/m 16,4 km/h (3 Bft) 95,21 %
16.12.2017 13:00 5,6 C 12,0 C 4,4 C 88 % 0 lf 1010,8 hPa 0,0 l/m 0,83 h 0,00 h 180 W/m 18,5 km/h (3 Bft) 97,01 %
16.12.2017 14:00 5,6 C 7,6 C 4,3 C 85 % 0 lf 1011,0 hPa 0,0 l/m 0,40 h 0,00 h 100 W/m 18,0 km/h (3 Bft) 96,84 %
16.12.2017 15:00 5,1 C 5,2 C 3,7 C 87 % 1 lf 1011,7 hPa 0,0 l/m 0,00 h 0,07 h 32 W/m 19,5 km/h (3 Bft) 95,08 %
16.12.2017 16:00 4,1 C 3,7 C 2,2 C 89 % 5 lf 1012,6 hPa 0,0 l/m 0,00 h 0,13 h 9 W/m 20,1 km/h (4 Bft) 97,59 %
16.12.2017 17:00 3,1 C 2,4 C 1,2 C 91 % 15 lf 1013,4 hPa 0,4 l/m 0,00 h 0,43 h 0 W/m 17,0 km/h (3 Bft) 95,52 %
16.12.2017 18:00 2,7 C 2,1 C 1,0 C 94 % 15 lf 1014,0 hPa 0,2 l/m 0,00 h 0,07 h 0 W/m 14,8 km/h (3 Bft) 98,31 %
16.12.2017 19:00 2,4 C 2,0 C 0,8 C 95 % 15 lf 1014,7 hPa 0,0 l/m 0,00 h 0,23 h 0 W/m 18,0 km/h (3 Bft) 94,81 %
16.12.2017 20:00 2,3 C 2,0 C 0,9 C 96 % 15 lf 1015,4 hPa 1,0 l/m 0,00 h 0,50 h 0 W/m 15,5 km/h (3 Bft) 94,87 %
16.12.2017 21:00 2,0 C 1,3 C 0,3 C 96 % 15 lf 1015,7 hPa 0,0 l/m 0,00 h 0,03 h 0 W/m 14,5 km/h (3 Bft) 97,57 %
16.12.2017 22:00 2,1 C 1,8 C 1,0 C 97 % 15 lf 1016,2 hPa 0,2 l/m 0,00 h 0,47 h 0 W/m 17,1 km/h (3 Bft) 96,90 %
16.12.2017 23:00 2,3 C 2,2 C 1,1 C 97 % 15 lf 1016,7 hPa 0,2 l/m 0,00 h 0,30 h 0 W/m 17,0 km/h (3 Bft) 94,75 %
17.12.2017 00:00 2,1 C 1,7 C 0,6 C 97 % 15 lf 1017,0 hPa 0,0 l/m 0,00 h 0,00 h 0 W/m 15,8 km/h (3 Bft) 93,14 %
17.12.2017 01:00 2,0 C 1,7 C 0,6 C 97 % 15 lf 1017,1 hPa 0,0 l/m 0,00 h 0,00 h 0 W/m 16,2 km/h (3 Bft) 95,16 %
17.12.2017 02:00 2,1 C 1,7 C 0,9 C 97 % 15 lf 1017,8 hPa 0,0 l/m 0,00 h 0,00 h 0 W/m 15,8 km/h (3 Bft) 97,51 %
17.12.2017 03:00 2,0 C 1,5 C 0,6 C 97 % 15 lf 1018,3 hPa 0,0 l/m 0,00 h 0,00 h 0 W/m 16,6 km/h (3 Bft) 96,94 %
17.12.2017 04:00 1,2 C 0,6 C -0,6 C 97 % 15 lf 1018,7 hPa 0,0 l/m 0,00 h 0,00 h 0 W/m 13,4 km/h (3 Bft) 93,54 %
17.12.2017 05:00 0,8 C 0,6 C -0,5 C 97 % 15 lf 1019,1 hPa 0,0 l/m 0,00 h 0,00 h 0 W/m 13,9 km/h (3 Bft) 98,61 %
17.12.2017 06:00 0,7 C 0,1 C -0,9 C 97 % 15 lf 1019,7 hPa 0,0 l/m 0,00 h 0,00 h 0 W/m 13,1 km/h (3 Bft) 97,18 %
17.12.2017 07:00 0,7 C 0,5 C -0,6 C 97 % 15 lf 1020,1 hPa 0,0 l/m 0,00 h 0,00 h 0 W/m 11,3 km/h (2 Bft) 94,82 %
17.12.2017 08:00 0,8 C 0,6 C -0,2 C 97 % 15 lf 1020,9 hPa 0,0 l/m 0,00 h 0,00 h 5 W/m 14,6 km/h (3 Bft) 96,75 %
17.12.2017 09:00 1,0 C 1,1 C 0,1 C 97 % 15 lf 1021,6 hPa 0,0 l/m 0,00 h 0,00 h 21 W/m 12,6 km/h (3 Bft) 97,38 %
17.12.2017 10:00 1,3 C 1,6 C 1,0 C 98 % 13 lf 1022,4 hPa 0,0 l/m 0,00 h 0,00 h 53 W/m 12,8 km/h (3 Bft) 95,72 %
17.12.2017 11:00 1,5 C 1,9 C 1,2 C 98 % 1 lf 1022,8 hPa 0,0 l/m 0,00 h 0,00 h 64 W/m 14,7 km/h (3 Bft) 97,05 %
17.12.2017 12:00 1,7 C 2,1 C 1,4 C 98 % 0 lf 1022,8 hPa 0,0 l/m 0,00 h 0,00 h 65 W/m 14,3 km/h (3 Bft) 94,89 %
17.12.2017 13:00 1,9 C 2,4 C 1,7 C 98 % 0 lf 1022,6 hPa 0,0 l/m 0,00 h 0,00 h 67 W/m 15,3 km/h (3 Bft) 97,51 %
17.12.2017 14:00 2,2 C 2,8 C 1,7 C 98 % 0 lf 1022,8 hPa 0,0 l/m 0,00 h 0,00 h 43 W/m 15,8 km/h (3 Bft) 96,94 %
17.12.2017 15:00 2,4 C 2,8 C 1,7 C 98 % 0 lf 1023,0 hPa 0,0 l/m 0,00 h 0,00 h 18 W/m 16,8 km/h (3 Bft) 95,24 %
17.12.2017 16:00 2,5 C 2,8 C 1,5 C 98 % 0 lf 1023,1 hPa 0,0 l/m 0,00 h 0,00 h 7 W/m 10,9 km/h (2 Bft) 96,16 %
17.12.2017 17:00 2,7 C 2,8 C 1,6 C 97 % 0 lf 1022,9 hPa 0,0 l/m 0,00 h 0,00 h 0 W/m 10,6 km/h (2 Bft) 97,36 %
17.12.2017 18:00 2,8 C 2,9 C 1,7 C 97 % 0 lf 1022,8 hPa 0,0 l/m 0,00 h 0,00 h 0 W/m 15,1 km/h (3 Bft) 97,05 %
17.12.2017 19:00 3,0 C 3,0 C 1,7 C 97 % 0 lf 1022,4 hPa 0,0 l/m 0,00 h 0,00 h 0 W/m 18,3 km/h (3 Bft) 95,37 %
17.12.2017 20:00 3,0 C 3,2 C 1,7 C 96 % 0 lf 1021,8 hPa 0,0 l/m 0,00 h 0,00 h 0 W/m 20,6 km/h (4 Bft) 95,80 %
17.12.2017 21:00 3,0 C 3,3 C 1,7 C 93 % 0 lf 1021,2 hPa 0,0 l/m 0,00 h 0,00 h 0 W/m 21,7 km/h (4 Bft) 96,73 %
17.12.2017 22:00 3,0 C 3,0 C 1,6 C 88 % 2 lf 1020,6 hPa 0,0 l/m 0,00 h 0,30 h 0 W/m 24,3 km/h (4 Bft) 97,08 %
17.12.2017 23:00 2,3 C 1,2 C 0,4 C 89 % 15 lf 1019,8 hPa 0,6 l/m 0,00 h 0,63 h 0 W/m 25,1 km/h (4 Bft) 95,30 %
Min-Datum _ 11.12.17 11.12.17 15.12.17 16.12.17 11.12.17 11.12.17 - - - - 11.12.17 17.12.17
_ Min-Zeit 06:24 05:34 22:34 13:56 00:00 16:02 - - - - 02:16 00:02
Minimum _ 0,2 C 0,0 C -1,7 C 85 % 0 lf 974,7 hPa - - - - 0,0 km/h (0 Bft) 11,11 %
Max-Datum _ 13.12.17 16.12.17 16.12.17 11.12.17 11.12.17 17.12.17 13.12.17 16.12.17 12.12.17 16.12.17 14.12.17 11.12.17
_ Max-Zeit 21:46 11:54 12:54 19:54 09:44 16:04 20:10 12:10 04:11 12:50 11:02 00:36
Maximum _ 6,2 C 14,4 C 5,0 C 99 % 15 lf 1023,3 hPa 3,0 l/m 0,07 h 0,08 h 299 W/m 69,8 km/h
SW (8 Bft)
100,00 %
Durchschnitt _ 2,6 C 2,5 C 1,2 C 94 % 7 lf 999,9 hPa #32,2 l/m #4:26 h #31:19 h 42 W/m 18,8 km/h (3 Bft) 96,28 %
© 2017 W. Hausmann